Time;durP1;ratioP1;P1;durP2;ratioP2;P2;SDS_P1;SDS_P2;PMS_P1;PMS_P2;Temp;Humidity;BMP_temperature;BMP_pressure;BME280_temperature;BME280_humidity;BME280_pressure;Samples;Min_cycle;Max_cycle;Signal;HPM_P1;HPM_P2
2022/10/12 00:00:21;;;;;;;74.97;6.47;;;;;;;17.86;61.41;101395.59;4951230;28;20031;-85
2022/10/12 00:02:46;;;;;;;148.52;11.18;;;;;;;18.03;61.06;101419.28;4954557;29;20070;-85
2022/10/12 00:05:12;;;;;;;54.88;4.20;;;;;;;17.89;61.01;101390.72;4957566;28;20095;-83
2022/10/12 00:07:37;;;;;;;42.88;5.03;;;;;;;18.08;61.02;101422.41;4958202;29;20027;-84
2022/10/12 00:10:03;;;;;;;55.38;5.93;;;;;;;18.12;60.90;101423.81;4958106;29;20028;-83
2022/10/12 00:12:28;;;;;;;29.58;3.85;;;;;;;18.10;60.78;101414.09;4968690;28;20079;-87
2022/10/12 00:14:54;;;;;;;15.93;2.90;;;;;;;18.24;60.73;101433.47;4979049;28;20034;-85
2022/10/12 00:17:19;;;;;;;9.85;3.05;;;;;;;18.10;60.53;101406.78;4979210;28;20046;-85
2022/10/12 00:19:45;;;;;;;39.70;4.30;;;;;;;18.05;60.68;101409.09;4962193;28;20027;-84
2022/10/12 00:22:10;;;;;;;12.75;2.58;;;;;;;17.78;60.43;101354.72;4953948;29;20102;-87
2022/10/12 00:24:35;;;;;;;6.93;2.50;;;;;;;18.09;60.51;101406.94;4954421;29;20118;-84
2022/10/12 00:27:01;;;;;;;10.52;2.95;;;;;;;17.83;60.42;101357.81;4952557;29;20030;-84
2022/10/12 00:29:26;;;;;;;54.13;6.07;;;;;;;17.96;60.20;101388.25;4953857;29;20132;-85
2022/10/12 00:31:52;;;;;;;20.30;3.15;;;;;;;18.08;60.25;101405.19;4953466;29;20550;-83
2022/10/12 00:34:17;;;;;;;11.73;3.17;;;;;;;18.03;60.46;101391.22;4952459;29;20069;-85
2022/10/12 00:36:43;;;;;;;77.18;6.00;;;;;;;18.04;59.95;101393.75;4953595;29;20530;-83
2022/10/12 00:39:09;;;;;;;7.13;3.17;;;;;;;18.17;59.67;101421.47;4953761;29;20050;-83
2022/10/12 00:41:39;;;;;;;17.67;2.97;;;;;;;18.13;59.98;101417.38;4953789;29;20028;-83
2022/10/12 00:44:50;;;;;;;4.72;2.38;;;;;;;18.01;60.02;101404.97;4953405;29;20480;-84
2022/10/12 00:47:29;;;;;;;13.23;2.35;;;;;;;18.08;60.11;101416.97;4931688;29;20071;-87
2022/10/12 00:50:26;;;;;;;122.75;11.57;;;;;;;17.99;60.35;101404.28;4931693;29;20059;-86
2022/10/12 00:52:56;;;;;;;55.90;4.40;;;;;;;17.71;60.34;101353.59;4856887;29;20498;-84
2022/10/12 00:55:25;;;;;;;9.93;2.40;;;;;;;17.97;59.96;101392.69;4860087;29;20045;-84
2022/10/12 00:57:52;;;;;;;7.95;3.13;;;;;;;18.09;59.81;101415.97;4860049;29;20042;-84
2022/10/12 01:00:18;;;;;;;10.82;2.42;;;;;;;17.93;59.91;101391.28;4863218;29;20041;-86
2022/10/12 01:02:46;;;;;;;60.33;5.28;;;;;;;18.03;59.91;101413.84;4862029;29;20029;-84
2022/10/12 01:05:12;;;;;;;8.73;3.13;;;;;;;17.91;60.04;101398.75;4857005;29;20041;-84
2022/10/12 01:07:38;;;;;;;57.65;5.60;;;;;;;17.88;59.97;101393.59;4856175;29;20537;-84
2022/10/12 01:10:04;;;;;;;27.02;3.40;;;;;;;17.69;60.00;101361.94;4856379;29;20201;-84
2022/10/12 01:12:30;;;;;;;12.43;2.65;;;;;;;17.96;60.30;101423.63;4857298;29;20034;-83
2022/10/12 01:14:56;;;;;;;15.13;3.15;;;;;;;17.84;60.33;101403.06;4865414;29;20048;-83
2022/10/12 01:17:34;;;;;;;5.90;2.97;;;;;;;17.93;60.72;101408.47;4868051;29;20034;-83
2022/10/12 01:20:21;;;;;;;4.68;2.50;;;;;;;17.84;60.87;101392.19;4861897;29;20037;-82
2022/10/12 01:23:11;;;;;;;5.20;2.65;;;;;;;17.70;60.99;101379.13;4861084;29;20116;-83
2022/10/12 01:25:43;;;;;;;30.90;3.75;;;;;;;17.94;61.04;101415.63;4906234;29;20033;-83
2022/10/12 01:28:23;;;;;;;26.33;4.00;;;;;;;17.89;61.17;101419.78;4914527;29;20051;-86
2022/10/12 01:30:55;;;;;;;5.60;3.08;;;;;;;17.46;61.26;101348.88;4977012;28;20062;-86
2022/10/12 01:33:24;;;;;;;8.85;2.85;;;;;;;17.84;61.35;101408.53;4977178;28;20035;-83
2022/10/12 01:36:07;;;;;;;6.60;2.42;;;;;;;17.80;61.39;101407.97;4955412;29;20062;-84
2022/10/12 01:38:36;;;;;;;62.67;6.78;;;;;;;17.60;61.53;101373.72;4952362;29;20031;-83
2022/10/12 01:41:19;;;;;;;26.13;4.07;;;;;;;17.75;61.63;101409.44;4951230;29;20601;-84
2022/10/12 01:43:45;;;;;;;9.63;3.38;;;;;;;17.68;61.79;101392.00;4952583;29;20019;-84
2022/10/12 01:46:19;;;;;;;13.68;3.58;;;;;;;17.74;61.69;101403.13;4952622;29;20074;-83
2022/10/12 01:48:48;;;;;;;13.82;4.18;;;;;;;17.66;61.76;101405.78;4951222;29;20423;-83
2022/10/12 01:51:55;;;;;;;6.40;2.97;;;;;;;17.61;61.96;101394.50;4952211;29;20027;-85
2022/10/12 01:54:35;;;;;;;12.50;3.45;;;;;;;17.68;61.88;101409.19;4895994;29;20037;-82
2022/10/12 01:57:04;;;;;;;6.15;2.75;;;;;;;17.47;62.00;101380.47;4911522;29;20043;-83
2022/10/12 01:59:50;;;;;;;26.50;3.63;;;;;;;17.68;61.98;101414.63;4911300;29;20412;-84
2022/10/12 02:02:35;;;;;;;10.43;2.78;;;;;;;17.34;61.83;101357.22;4911544;29;20163;-84
2022/10/12 02:05:25;;;;;;;7.90;2.90;;;;;;;17.52;61.99;101387.19;4911404;29;20044;-83
2022/10/12 02:08:01;;;;;;;10.98;3.22;;;;;;;17.53;62.11;101382.59;4911188;29;20028;-83
2022/10/12 02:10:34;;;;;;;10.45;2.80;;;;;;;17.69;61.79;101407.31;4911101;29;20047;-84
2022/10/12 02:13:05;;;;;;;8.48;2.40;;;;;;;17.79;61.94;101427.19;4895398;29;20024;-84
2022/10/12 02:15:32;;;;;;;4.38;2.75;;;;;;;17.73;62.03;101417.78;4895487;29;20083;-83
2022/10/12 02:17:58;;;;;;;3.35;2.10;;;;;;;17.38;61.86;101346.91;4911080;29;20135;-84
2022/10/12 02:20:26;;;;;;;11.43;4.20;;;;;;;17.40;62.10;101351.16;4895495;29;20072;-83
2022/10/12 02:22:53;;;;;;;11.40;2.25;;;;;;;17.68;62.00;101397.44;4911416;29;20495;-82
2022/10/12 02:25:23;;;;;;;14.75;2.03;;;;;;;17.66;61.96;101397.59;4910859;29;20140;-83
2022/10/12 02:27:59;;;;;;;16.23;2.13;;;;;;;17.76;62.02;101417.47;4911384;29;20064;-82
2022/10/12 02:30:25;;;;;;;5.30;1.90;;;;;;;17.72;62.01;101405.16;4920623;29;20130;-83
2022/10/12 02:32:56;;;;;;;11.98;2.47;;;;;;;17.61;62.02;101390.91;4952453;29;20038;-84
2022/10/12 02:35:43;;;;;;;7.45;2.00;;;;;;;17.74;61.67;101421.31;4952380;29;20035;-84
2022/10/12 02:38:14;;;;;;;15.75;2.58;;;;;;;17.75;61.89;101432.06;4955596;29;20031;-82
2022/10/12 02:40:42;;;;;;;8.48;2.90;;;;;;;17.72;61.53;101442.41;4955582;28;20111;-82
2022/10/12 02:43:12;;;;;;;28.23;3.20;;;;;;;17.73;61.44;101438.66;4961973;28;20058;-87
2022/10/12 02:45:42;;;;;;;13.50;2.95;;;;;;;17.55;61.39;101408.66;4975566;28;20027;-87
2022/10/12 02:48:13;;;;;;;16.35;2.67;;;;;;;17.48;61.31;101395.81;4974108;28;20050;-84
2022/10/12 02:50:39;;;;;;;10.05;2.75;;;;;;;17.69;61.31;101431.81;4958104;28;20043;-85
2022/10/12 02:53:06;;;;;;;10.65;2.45;;;;;;;17.68;61.46;101430.94;4949169;29;20132;-89
2022/10/12 02:55:37;;;;;;;5.65;3.30;;;;;;;17.46;61.61;101414.16;4949166;29;20031;-85
2022/10/12 02:58:03;;;;;;;6.50;2.30;;;;;;;17.60;61.35;101421.84;4948759;29;20570;-87
2022/10/12 03:00:32;;;;;;;18.67;2.92;;;;;;;17.71;61.64;101448.84;4948811;29;20098;-84
2022/10/12 03:02:57;;;;;;;12.70;2.80;;;;;;;17.61;62.10;101418.13;4948746;29;20140;-85
2022/10/12 03:05:23;;;;;;;108.35;8.20;;;;;;;17.72;62.15;101437.81;4948657;29;20039;-85
2022/10/12 03:07:48;;;;;;;31.25;3.88;;;;;;;17.45;62.47;101396.97;4949169;29;20102;-84
2022/10/12 03:10:14;;;;;;;28.85;5.35;;;;;;;17.13;62.41;101344.88;4948708;29;20039;-82
2022/10/12 03:12:39;;;;;;;4.63;1.85;;;;;;;17.45;62.48;101394.25;4949004;29;20031;-83
2022/10/12 03:15:05;;;;;;;6.15;2.10;;;;;;;17.34;62.53;101373.53;4948603;29;20082;-84
2022/10/12 03:17:31;;;;;;;76.43;5.97;;;;;;;17.42;62.64;101383.66;4949326;29;20171;-83
2022/10/12 03:19:56;;;;;;;13.00;2.55;;;;;;;17.66;62.69;101415.78;4963109;28;20035;-84
2022/10/12 03:22:21;;;;;;;17.63;2.70;;;;;;;17.67;62.75;101414.78;4951139;28;20024;-83
2022/10/12 03:24:47;;;;;;;60.22;6.22;;;;;;;17.71;62.83;101425.19;4950903;29;20023;-85
2022/10/12 03:27:12;;;;;;;14.30;4.97;;;;;;;17.67;62.72;101417.50;4950885;29;20094;-85
2022/10/12 03:29:38;;;;;;;40.72;11.95;;;;;;;17.55;62.54;101397.78;4951248;29;20475;-84
2022/10/12 03:32:03;;;;;;;45.10;9.25;;;;;;;17.72;62.34;101421.50;4949903;29;20023;-84
2022/10/12 03:34:29;;;;;;;29.20;5.95;;;;;;;17.45;62.33;101374.34;4951103;29;20031;-83
2022/10/12 03:36:54;;;;;;;40.90;5.25;;;;;;;17.74;62.15;101418.59;4954145;28;20038;-85
2022/10/12 03:39:20;;;;;;;62.92;4.43;;;;;;;17.79;61.82;101435.34;4954816;29;20110;-83
2022/10/12 03:41:45;;;;;;;25.80;5.28;;;;;;;17.33;61.70;101360.09;4954534;28;20032;-84
2022/10/12 03:44:10;;;;;;;22.40;3.65;;;;;;;17.22;61.36;101335.81;4955028;29;20027;-83
2022/10/12 03:46:36;;;;;;;19.05;3.67;;;;;;;17.69;61.48;101407.31;4954808;29;20078;-84
2022/10/12 03:49:01;;;;;;;107.40;10.20;;;;;;;17.85;61.22;101437.47;4956187;29;20055;-85
2022/10/12 03:51:27;;;;;;;60.47;3.75;;;;;;;17.83;61.10;101421.28;4957502;28;20034;-84
2022/10/12 03:53:52;;;;;;;26.38;5.20;;;;;;;17.77;60.90;101424.59;4958239;29;20027;-82
2022/10/12 03:56:18;;;;;;;68.88;6.80;;;;;;;17.49;60.64;101365.72;4957821;28;20082;-80
2022/10/12 03:58:43;;;;;;;14.77;2.88;;;;;;;17.61;60.52;101407.22;4966602;28;20016;-83
2022/10/12 04:01:09;;;;;;;72.68;6.32;;;;;;;17.63;60.43;101395.19;4979343;28;20046;-83
2022/10/12 04:03:35;;;;;;;236.38;16.42;;;;;;;17.92;60.49;101446.72;4978784;28;20046;-84
2022/10/12 04:06:00;;;;;;;139.57;10.05;;;;;;;17.62;60.48;101389.88;4963513;28;20046;-83
2022/10/12 04:08:27;;;;;;;52.55;5.53;;;;;;;17.74;60.83;101402.28;4953483;29;20031;-83
2022/10/12 04:10:53;;;;;;;336.40;22.10;;;;;;;17.74;60.63;101407.72;4951896;29;20040;-83
2022/10/12 04:13:19;;;;;;;286.35;18.77;;;;;;;17.80;60.61;101413.41;4946161;28;20030;-83
2022/10/12 04:15:45;;;;;;;101.30;8.07;;;;;;;17.52;60.29;101386.34;4953148;29;20034;-83
2022/10/12 04:18:10;;;;;;;47.03;4.63;;;;;;;17.89;60.29;101447.00;4955138;29;20035;-83
2022/10/12 04:20:36;;;;;;;44.08;4.40;;;;;;;17.50;60.35;101380.19;4950147;28;20039;-82
2022/10/12 04:23:01;;;;;;;495.63;42.50;;;;;;;17.91;60.34;101450.47;4944335;29;20495;-83
2022/10/12 04:25:27;;;;;;;264.65;19.15;;;;;;;17.93;60.42;101451.16;4952071;29;20420;-83
2022/10/12 04:27:52;;;;;;;132.75;11.75;;;;;;;17.80;60.21;101435.19;4955325;28;20511;-84
2022/10/12 04:30:18;;;;;;;119.25;9.90;;;;;;;17.85;60.20;101443.75;4953772;29;20038;-83
2022/10/12 04:32:43;;;;;;;212.25;17.40;;;;;;;17.93;60.27;101453.88;4955314;28;20491;-85
2022/10/12 04:35:09;;;;;;;159.88;12.30;;;;;;;17.72;60.40;101421.50;4954200;28;20071;-82
2022/10/12 04:37:34;;;;;;;92.25;8.30;;;;;;;17.92;60.32;101449.44;4953891;28;20117;-84
2022/10/12 04:40:00;;;;;;;548.70;46.22;;;;;;;17.82;60.35;101421.44;4954244;28;20510;-84
2022/10/12 04:42:25;;;;;;;168.15;11.82;;;;;;;17.82;59.85;101427.75;4953681;28;20024;-84
2022/10/12 04:44:51;;;;;;;110.75;9.18;;;;;;;17.86;59.82;101439.16;4953931;29;20023;-84
2022/10/12 04:47:16;;;;;;;344.13;23.75;;;;;;;17.59;59.79;101392.91;4953210;28;20091;-82
2022/10/12 04:49:41;;;;;;;412.90;30.63;;;;;;;17.54;59.96;101389.75;4953778;28;20051;-83
2022/10/12 04:52:07;;;;;;;201.93;12.73;;;;;;;17.71;60.12;101436.09;4953913;28;20038;-83
2022/10/12 04:54:32;;;;;;;304.00;19.58;;;;;;;17.56;59.96;101417.69;4953419;28;20065;-84
2022/10/12 04:56:58;;;;;;;179.38;13.13;;;;;;;17.12;60.21;101346.75;4954591;29;20031;-83
2022/10/12 04:59:23;;;;;;;614.55;58.67;;;;;;;17.57;59.74;101401.25;4967758;28;20095;-83
2022/10/12 05:01:49;;;;;;;293.23;19.17;;;;;;;17.77;59.58;101446.38;4967191;29;20038;-84
2022/10/12 05:04:14;;;;;;;144.65;10.20;;;;;;;17.69;59.42;101435.41;4967939;28;20031;-83
2022/10/12 05:06:40;;;;;;;540.22;47.30;;;;;;;17.53;59.58;101405.22;4966669;28;20031;-85
2022/10/12 05:09:05;;;;;;;78.68;8.48;;;;;;;17.75;59.40;101447.53;4969565;28;20031;-83
2022/10/12 05:11:31;;;;;;;43.10;4.88;;;;;;;17.76;59.18;101447.41;4966769;28;20115;-85
2022/10/12 05:13:56;;;;;;;57.25;8.30;;;;;;;17.76;59.35;101441.09;4965355;29;20046;-87
2022/10/12 05:16:22;;;;;;;18.58;4.65;;;;;;;17.90;58.93;101456.91;4975368;28;20047;-83
2022/10/12 05:18:47;;;;;;;37.53;6.40;;;;;;;17.97;58.97;101474.34;4975155;28;20027;-84
2022/10/12 05:21:13;;;;;;;18.70;3.88;;;;;;;17.98;58.63;101459.72;4961644;28;20046;-81
2022/10/12 05:23:38;;;;;;;212.32;15.65;;;;;;;18.00;58.71;101463.16;4952058;29;20078;-84
2022/10/12 05:26:04;;;;;;;30.75;3.65;;;;;;;17.86;58.77;101450.03;4952352;29;20062;-83
2022/10/12 05:28:29;;;;;;;12.00;2.78;;;;;;;17.82;58.25;101430.47;4952373;28;20090;-81
2022/10/12 05:30:55;;;;;;;27.67;3.60;;;;;;;18.08;57.84;101465.09;4951863;29;20059;-82
2022/10/12 05:33:20;;;;;;;29.63;3.80;;;;;;;18.24;57.37;101471.59;4952248;28;20034;-81
2022/10/12 05:35:47;;;;;;;38.72;4.07;;;;;;;17.91;56.01;101407.78;4951393;28;20035;-83
2022/10/12 05:38:13;;;;;;;46.55;4.50;;;;;;;18.31;55.48;101480.00;4951465;29;20968;-83
2022/10/12 05:40:38;;;;;;;10.82;2.60;;;;;;;17.83;54.82;101402.22;4951615;28;20099;-81
2022/10/12 05:43:04;;;;;;;109.55;8.50;;;;;;;18.16;55.14;101448.88;4954170;29;20019;-80
2022/10/12 05:45:29;;;;;;;55.40;10.27;;;;;;;18.35;54.72;101478.66;4952550;28;20039;-82
2022/10/12 05:47:55;;;;;;;116.28;11.02;;;;;;;18.42;54.33;101480.63;4952176;29;20538;-80
2022/10/12 05:50:20;;;;;;;139.68;15.23;;;;;;;18.54;54.38;101480.44;4951262;28;20043;-80
2022/10/12 05:52:46;;;;;;;122.57;8.35;;;;;;;18.59;54.01;101486.28;4951108;29;20038;-81
2022/10/12 05:55:12;;;;;;;85.95;7.28;;;;;;;18.79;54.38;101515.09;4951456;29;20475;-80
2022/10/12 05:57:38;;;;;;;37.97;4.55;;;;;;;18.72;54.18;101486.72;4951486;29;20095;-85
2022/10/12 06:00:08;;;;;;;17.20;4.63;;;;;;;18.99;53.37;101516.63;4951112;28;20078;-81
2022/10/12 06:02:34;;;;;;;60.83;8.50;;;;;;;18.99;53.17;101509.28;4951542;28;20102;-81
2022/10/12 06:04:59;;;;;;;101.95;10.98;;;;;;;19.11;53.13;101511.78;4951160;28;20020;-80
2022/10/12 06:07:25;;;;;;;129.27;12.50;;;;;;;19.08;53.11;101488.41;4950746;28;20035;-81
2022/10/12 06:09:51;;;;;;;49.13;8.93;;;;;;;19.38;52.95;101526.16;4951821;28;20029;-82
2022/10/12 06:12:16;;;;;;;126.13;13.75;;;;;;;19.12;52.77;101467.13;4951852;28;20038;-82
2022/10/12 06:14:42;;;;;;;43.83;4.80;;;;;;;19.50;52.65;101524.03;4953194;28;20028;-82
2022/10/12 06:17:08;;;;;;;41.20;5.50;;;;;;;19.55;53.04;101525.25;4951899;28;20510;-82
2022/10/12 06:19:34;;;;;;;162.65;14.60;;;;;;;19.52;51.90;101506.50;4951585;29;20503;-82
2022/10/12 06:22:00;;;;;;;37.65;6.38;;;;;;;19.69;51.79;101515.63;4950916;29;20799;-82
2022/10/12 06:24:26;;;;;;;34.22;3.90;;;;;;;19.66;51.23;101488.66;4959190;28;20047;-82
2022/10/12 06:26:51;;;;;;;14.75;3.25;;;;;;;19.90;51.43;101517.97;4951614;29;20074;-81
2022/10/12 06:29:17;;;;;;;17.08;2.95;;;;;;;19.77;49.84;101502.03;4957731;29;20042;-82
2022/10/12 06:31:43;;;;;;;50.35;7.78;;;;;;;19.92;49.69;101513.19;4968166;29;20131;-83
2022/10/12 06:34:08;;;;;;;88.10;11.07;;;;;;;20.17;49.25;101536.00;4968943;29;20043;-82
2022/10/12 06:36:34;;;;;;;265.73;23.38;;;;;;;19.92;48.84;101502.25;4957346;28;20130;-83
2022/10/12 06:38:59;;;;;;;149.95;12.68;;;;;;;20.00;47.76;101500.41;4948545;29;20031;-83
2022/10/12 06:41:25;;;;;;;76.65;6.57;;;;;;;20.23;47.98;101538.91;4948243;29;20043;-81
2022/10/12 06:43:50;;;;;;;26.95;4.88;;;;;;;20.22;47.75;101529.00;4948048;29;20217;-82
2022/10/12 06:46:15;;;;;;;35.20;4.50;;;;;;;20.06;47.29;101507.09;4947114;29;20069;-81
2022/10/12 06:48:41;;;;;;;50.95;5.15;;;;;;;20.13;47.21;101519.06;4947441;29;20541;-81
2022/10/12 06:51:07;;;;;;;31.85;3.55;;;;;;;20.12;47.78;101538.38;4947099;29;20035;-82
2022/10/12 06:53:33;;;;;;;38.95;4.20;;;;;;;20.02;47.48;101538.50;4949377;29;20047;-86
2022/10/12 06:56:04;;;;;;;85.53;6.35;;;;;;;20.14;46.77;101536.31;4949832;28;20055;-83
2022/10/12 06:58:30;;;;;;;30.17;4.38;;;;;;;19.98;46.59;101512.53;4950690;29;20043;-83
2022/10/12 07:00:55;;;;;;;100.68;7.13;;;;;;;20.19;46.30;101539.41;4951867;29;20055;-82
2022/10/12 07:03:21;;;;;;;190.85;12.95;;;;;;;20.05;46.11;101517.19;4952111;29;20383;-82
2022/10/12 07:05:46;;;;;;;44.58;5.78;;;;;;;20.31;45.50;101527.19;4949381;29;20333;-83
2022/10/12 07:08:12;;;;;;;19.98;2.75;;;;;;;20.41;45.34;101536.09;4951309;29;20031;-83
2022/10/12 07:10:37;;;;;;;20.63;3.33;;;;;;;20.35;45.17;101529.44;4952660;28;20027;-84
2022/10/12 07:13:03;;;;;;;326.00;20.35;;;;;;;20.26;45.25;101521.38;4955073;28;20038;-85
2022/10/12 07:15:28;;;;;;;22.73;3.20;;;;;;;20.09;45.33;101513.06;4954734;28;20398;-83
2022/10/12 07:17:54;;;;;;;31.27;3.20;;;;;;;20.06;44.99;101529.78;4954677;28;20039;-83
2022/10/12 07:20:22;;;;;;;6.90;2.83;;;;;;;20.15;44.92;101538.88;4955373;28;20027;-83
2022/10/12 07:22:47;;;;;;;7.93;2.33;;;;;;;20.19;44.63;101518.41;4953891;28;20122;-85
2022/10/12 07:25:13;;;;;;;41.40;4.53;;;;;;;20.33;44.71;101530.63;4952451;29;20481;-82
2022/10/12 07:27:38;;;;;;;60.72;6.15;;;;;;;20.24;44.57;101502.41;4954865;29;20121;-81
2022/10/12 07:30:04;;;;;;;82.82;7.70;;;;;;;20.32;44.67;101518.84;4955892;28;20106;-82
2022/10/12 07:32:30;;;;;;;66.15;6.20;;;;;;;20.67;44.55;101547.81;4953271;29;20447;-83
2022/10/12 07:34:55;;;;;;;16.60;3.15;;;;;;;20.32;43.47;101486.03;4969398;28;20390;-83
2022/10/12 07:37:21;;;;;;;32.05;3.75;;;;;;;20.67;43.09;101544.22;4965287;29;20104;-87
2022/10/12 07:39:47;;;;;;;28.33;5.18;;;;;;;20.59;43.04;101517.69;4960588;28;20035;-87
2022/10/12 07:42:12;;;;;;;83.40;8.35;;;;;;;20.66;43.12;101512.41;4960891;28;20032;-85
2022/10/12 07:44:38;;;;;;;54.50;4.88;;;;;;;20.18;42.99;101456.63;4964362;28;20019;-84
2022/10/12 07:47:03;;;;;;;69.40;5.63;;;;;;;20.66;42.97;101515.16;4978184;28;20039;-83
2022/10/12 07:49:29;;;;;;;117.90;9.07;;;;;;;20.63;43.48;101538.22;4977411;28;20050;-85
2022/10/12 07:51:54;;;;;;;28.55;3.60;;;;;;;20.63;43.23;101525.41;4968337;28;20031;-85
2022/10/12 07:54:20;;;;;;;16.08;3.00;;;;;;;20.84;43.39;101540.47;4954563;29;20113;-85
2022/10/12 07:56:46;;;;;;;33.47;4.30;;;;;;;20.55;43.77;101524.50;4953333;28;20052;-85
2022/10/12 07:59:11;;;;;;;26.90;4.00;;;;;;;20.60;43.41;101523.00;4956722;29;20027;-86
2022/10/12 08:01:36;;;;;;;25.13;2.33;;;;;;;20.40;43.86;101518.84;4955539;28;20023;-85
2022/10/12 08:04:03;;;;;;;59.78;5.70;;;;;;;20.48;43.95;101518.03;4952324;29;20041;-83
2022/10/12 08:06:31;;;;;;;8.15;2.05;;;;;;;20.23;43.80;101497.94;4953757;28;20031;-83
2022/10/12 08:08:57;;;;;;;196.48;10.27;;;;;;;20.52;43.54;101517.50;4952896;28;20063;-84
2022/10/12 08:11:23;;;;;;;36.45;3.20;;;;;;;20.51;43.47;101499.41;4953697;28;20031;-85
2022/10/12 08:13:48;;;;;;;24.65;3.25;;;;;;;20.62;43.30;101514.63;4952783;28;20579;-84
2022/10/12 08:16:17;;;;;;;59.95;5.38;;;;;;;20.42;43.36;101459.44;4952673;28;20085;-83
2022/10/12 08:18:43;;;;;;;19.10;2.85;;;;;;;21.02;43.50;101542.03;4953057;29;20491;-83
2022/10/12 08:21:10;;;;;;;143.45;11.13;;;;;;;21.14;43.50;101548.03;4952790;28;20075;-82
2022/10/12 08:23:36;;;;;;;25.75;2.42;;;;;;;20.86;43.33;101500.13;4951939;28;20101;-83
2022/10/12 08:26:02;;;;;;;28.42;2.28;;;;;;;21.03;43.55;101546.47;4951930;29;20111;-83
2022/10/12 08:28:28;;;;;;;16.92;2.70;;;;;;;20.97;43.84;101554.50;4938771;29;20115;-83
2022/10/12 08:30:54;;;;;;;46.13;3.35;;;;;;;20.68;44.11;101545.91;4953316;28;20035;-84
2022/10/12 08:33:19;;;;;;;39.20;4.15;;;;;;;20.69;44.23;101551.22;4952337;28;20031;-85
2022/10/12 08:35:49;;;;;;;27.75;3.03;;;;;;;20.31;44.77;101525.31;4950890;29;20428;-84
2022/10/12 08:38:15;;;;;;;8.00;2.10;;;;;;;20.45;44.80;101549.28;4950573;29;20886;-83
2022/10/12 08:40:52;;;;;;;8.50;2.25;;;;;;;20.49;44.62;101556.09;4952582;28;20031;-83
2022/10/12 08:43:26;;;;;;;11.68;2.28;;;;;;;20.54;44.73;101561.94;4952669;28;20174;-84
2022/10/12 08:45:55;;;;;;;32.53;3.38;;;;;;;20.60;45.28;101554.94;4952990;28;20035;-83
2022/10/12 08:48:31;;;;;;;44.20;3.28;;;;;;;20.78;45.04;101542.00;4952851;28;20051;-84
2022/10/12 08:51:01;;;;;;;48.97;6.35;;;;;;;20.94;44.61;101546.63;4954763;28;20023;-85
2022/10/12 08:53:29;;;;;;;20.23;2.47;;;;;;;21.19;44.24;101544.81;4957463;28;20042;-83
2022/10/12 08:55:55;;;;;;;27.02;3.10;;;;;;;21.05;44.02;101505.25;4955978;28;20070;-83
2022/10/12 08:58:34;;;;;;;39.05;3.08;;;;;;;21.12;43.65;101540.00;4956202;29;20035;-84
2022/10/12 09:01:17;;;;;;;96.80;8.10;;;;;;;21.12;44.19;101555.56;4968871;28;20023;-84
2022/10/12 09:04:20;;;;;;;18.35;2.30;;;;;;;21.13;43.10;101555.38;4976637;28;20019;-84
2022/10/12 09:06:45;;;;;;;16.52;2.50;;;;;;;21.13;43.17;101557.25;4973222;28;20106;-86
2022/10/12 09:09:34;;;;;;;16.35;4.13;;;;;;;21.12;42.97;101534.53;4951995;29;20031;-84
2022/10/12 09:12:17;;;;;;;12.35;2.65;;;;;;;21.36;42.89;101547.34;4952282;29;20034;-83
2022/10/12 09:14:46;;;;;;;11.07;2.15;;;;;;;21.44;42.74;101549.22;4951570;28;20086;-84
2022/10/12 09:17:24;;;;;;;18.33;2.00;;;;;;;21.34;42.76;101519.31;4951512;29;20031;-84
2022/10/12 09:20:01;;;;;;;11.75;1.98;;;;;;;21.65;42.59;101524.88;4951488;28;20031;-86
2022/10/12 09:22:28;;;;;;;88.68;6.38;;;;;;;21.92;42.90;101554.63;4951150;29;20028;-83
2022/10/12 09:24:55;;;;;;;16.58;2.20;;;;;;;21.60;42.83;101499.91;4951354;28;20049;-83
2022/10/12 09:27:21;;;;;;;25.73;2.60;;;;;;;21.98;42.72;101553.94;4950782;29;20039;-82
2022/10/12 09:29:50;;;;;;;29.85;2.55;;;;;;;21.75;42.81;101513.72;4951383;28;20027;-83
2022/10/12 09:32:22;;;;;;;11.38;2.28;;;;;;;22.05;42.69;101548.56;4951458;29;20031;-83
2022/10/12 09:34:48;;;;;;;20.05;2.90;;;;;;;22.04;42.19;101511.28;4951724;28;20031;-84
2022/10/12 09:37:19;;;;;;;221.98;13.10;;;;;;;22.45;41.42;101547.53;4953166;29;20054;-83
2022/10/12 09:39:45;;;;;;;36.60;4.15;;;;;;;22.52;40.86;101535.69;4951262;29;20035;-82
2022/10/12 09:42:11;;;;;;;5.78;2.20;;;;;;;22.38;40.87;101511.78;4951811;29;20163;-83
2022/10/12 09:44:45;;;;;;;24.13;3.58;;;;;;;22.66;40.92;101537.69;4952945;29;20405;-85
2022/10/12 09:47:19;;;;;;;40.38;2.67;;;;;;;22.68;40.57;101538.38;4954046;29;20174;-87
2022/10/12 09:49:49;;;;;;;6.22;2.05;;;;;;;22.49;40.76;101530.56;4949230;29;20503;-83
2022/10/12 09:52:19;;;;;;;57.75;5.20;;;;;;;22.43;40.33;101531.28;4950579;29;20050;-85
2022/10/12 09:54:47;;;;;;;108.13;6.93;;;;;;;22.62;40.86;101535.47;4951314;29;20535;-82
2022/10/12 09:57:30;;;;;;;271.70;16.30;;;;;;;22.72;41.04;101536.94;4949261;29;20125;-82
2022/10/12 09:59:56;;;;;;;130.57;7.80;;;;;;;22.80;40.80;101526.97;4951629;28;20023;-84
2022/10/12 10:02:25;;;;;;;30.55;5.22;;;;;;;22.28;40.52;101467.31;4951832;28;20035;-85
2022/10/12 10:04:52;;;;;;;24.48;2.83;;;;;;;22.65;41.50;101543.34;4953909;29;20083;-85
2022/10/12 10:07:20;;;;;;;60.17;4.28;;;;;;;22.82;41.17;101524.88;4952241;29;20047;-85
2022/10/12 10:09:47;;;;;;;20.33;2.13;;;;;;;22.92;41.54;101525.50;4957010;29;20098;-84
2022/10/12 10:12:25;;;;;;;27.80;3.38;;;;;;;22.87;40.81;101537.03;4955469;29;20038;-84
2022/10/12 10:14:55;;;;;;;51.47;4.53;;;;;;;22.88;41.02;101519.53;4956575;29;20034;-85
2022/10/12 10:17:32;;;;;;;30.60;2.78;;;;;;;23.00;40.54;101529.03;4975799;28;20051;-84
2022/10/12 10:20:00;;;;;;;14.32;2.03;;;;;;;22.81;40.57;101523.19;4993065;28;20130;-84
2022/10/12 10:22:26;;;;;;;32.08;2.72;;;;;;;22.53;41.58;101520.94;4985533;28;20073;-84
2022/10/12 10:24:55;;;;;;;51.95;4.60;;;;;;;22.09;41.53;101470.47;4967998;28;20031;-84
2022/10/12 10:27:32;;;;;;;9.93;2.83;;;;;;;22.63;41.18;101520.69;4973476;28;20131;-84
2022/10/12 10:30:26;;;;;;;16.30;2.15;;;;;;;22.77;41.13;101518.06;4976017;28;20166;-84
2022/10/12 10:33:07;;;;;;;89.78;6.00;;;;;;;22.86;40.56;101510.63;4897615;29;20151;-86
2022/10/12 10:35:33;;;;;;;52.05;3.40;;;;;;;22.56;41.20;101501.41;4892176;29;20132;-84
2022/10/12 10:37:59;;;;;;;15.07;2.22;;;;;;;22.31;42.16;101504.44;4892829;29;20040;-82
2022/10/12 10:40:30;;;;;;;344.67;24.83;;;;;;;22.20;43.00;101498.31;4894683;29;20128;-83
2022/10/12 10:43:00;;;;;;;131.98;8.48;;;;;;;22.37;42.54;101515.56;4890933;29;20048;-84
2022/10/12 10:45:33;;;;;;;61.33;5.95;;;;;;;22.25;42.87;101500.56;4890504;29;20082;-85
2022/10/12 10:48:07;;;;;;;215.75;15.18;;;;;;;22.03;42.99;101483.00;4890432;29;20102;-85
2022/10/12 10:50:38;;;;;;;22.48;2.50;;;;;;;22.20;42.94;101503.81;4891427;29;20059;-85
2022/10/12 10:53:18;;;;;;;20.48;2.08;;;;;;;22.32;42.60;101504.28;4890911;29;20104;-85
2022/10/12 10:55:51;;;;;;;53.40;5.43;;;;;;;22.09;42.28;101463.13;4891712;29;21206;-84
2022/10/12 10:58:18;;;;;;;;;;;;;;;22.30;42.27;101500.84;4892110;29;20480;-84
2022/10/12 11:00:46;;;;;;;42.58;3.95;;;;;;;22.30;42.17;101509.06;4891699;29;19954;-84
2022/10/12 11:03:20;;;;;;;16.10;1.98;;;;;;;22.09;42.28;101495.13;4891647;29;20071;-85
2022/10/12 11:05:53;;;;;;;15.13;2.88;;;;;;;21.77;42.49;101457.78;4891664;29;20032;-85
2022/10/12 11:08:29;;;;;;;13.50;2.30;;;;;;;21.74;42.93;101498.34;4897708;29;20744;-84
2022/10/12 11:10:59;;;;;;;33.80;3.03;;;;;;;21.83;43.08;101500.88;4951127;28;20062;-85
2022/10/12 11:13:59;;;;;;;14.18;1.80;;;;;;;21.91;43.26;101491.78;4951832;29;20083;-85
2022/10/12 11:16:37;;;;;;;167.13;10.02;;;;;;;21.87;43.25;101490.41;4934818;29;20044;-85
2022/10/12 11:19:32;;;;;;;22.83;2.42;;;;;;;21.85;43.84;101497.94;4936238;29;20099;-85
2022/10/12 11:22:14;;;;;;;16.20;2.90;;;;;;;21.87;43.82;101501.34;4940449;29;20065;-84
2022/10/12 11:24:42;;;;;;;42.08;2.97;;;;;;;21.69;44.05;101504.34;4925509;29;20039;-85